createdAt,value
2024-05-09T00:01:39.436Z,2.37
2024-05-09T00:06:27.864Z,2.30
2024-05-09T00:11:31.458Z,2.20
2024-05-09T00:16:19.769Z,2.23
2024-05-09T00:21:08.932Z,2.50
2024-05-09T00:25:54.665Z,2.47
2024-05-09T00:30:46.718Z,2.53
2024-05-09T00:35:32.346Z,2.37
2024-05-09T00:40:30.807Z,2.63
2024-05-09T00:45:23.850Z,2.47
2024-05-09T00:50:35.455Z,2.80
2024-05-09T00:55:29.544Z,2.70
2024-05-09T01:00:31.513Z,3.07
2024-05-09T01:05:26.341Z,2.60
2024-05-09T01:10:17.366Z,2.73
2024-05-09T01:15:11.588Z,2.93
2024-05-09T01:19:58.360Z,3.37
2024-05-09T01:24:49.268Z,2.97
2024-05-09T01:29:38.339Z,2.73
2024-05-09T01:34:26.870Z,3.20
2024-05-09T01:39:15.012Z,2.90
2024-05-09T01:44:06.822Z,3.23
2024-05-09T01:48:52.438Z,3.27
2024-05-09T01:53:39.927Z,2.73
2024-05-09T01:58:27.108Z,3.23
2024-05-09T02:03:17.801Z,2.80
2024-05-09T02:08:03.806Z,3.40
2024-05-09T02:12:52.290Z,2.90
2024-05-09T02:17:41.252Z,3.37
2024-05-09T02:22:29.568Z,3.37
2024-05-09T02:27:15.090Z,2.77
2024-05-09T02:32:03.374Z,3.90
2024-05-09T02:36:51.585Z,3.30
2024-05-09T02:41:53.274Z,3.30
2024-05-09T02:46:47.788Z,3.40
2024-05-09T02:51:33.259Z,3.13
2024-05-09T02:56:19.018Z,3.13
2024-05-09T03:01:07.420Z,3.33
2024-05-09T03:05:54.849Z,2.87
2024-05-09T03:10:42.311Z,2.67
2024-05-09T03:15:33.285Z,3.40
2024-05-09T03:20:27.325Z,3.70
2024-05-09T03:25:20.677Z,3.37
2024-05-09T03:30:09.871Z,3.00
2024-05-09T03:35:00.278Z,3.27
2024-05-09T03:39:52.437Z,3.00
2024-05-09T03:44:52.741Z,2.83
2024-05-09T03:49:41.518Z,2.80
2024-05-09T03:54:28.235Z,3.10
2024-05-09T03:59:20.314Z,3.50
2024-05-09T04:04:05.863Z,3.30
2024-05-09T04:08:51.295Z,3.30
2024-05-09T04:13:39.891Z,3.20
2024-05-09T04:18:28.577Z,3.10
2024-05-09T04:23:15.318Z,3.03
2024-05-09T04:28:03.855Z,2.90
2024-05-09T04:32:51.411Z,2.90
2024-05-09T04:37:50.343Z,3.13
2024-05-09T04:42:40.075Z,2.70
2024-05-09T04:47:31.720Z,3.40
2024-05-09T04:52:17.749Z,2.97
2024-05-09T04:57:07.234Z,3.10
2024-05-09T05:01:54.692Z,2.90
2024-05-09T05:06:42.238Z,3.20
2024-05-09T05:11:30.481Z,3.50
2024-05-09T05:16:22.399Z,2.90
2024-05-09T05:21:09.067Z,3.20
2024-05-09T05:25:57.821Z,2.70
2024-05-09T05:30:44.672Z,2.90
2024-05-09T05:35:36.579Z,2.53
2024-05-09T05:40:46.872Z,2.97
2024-05-09T05:45:35.468Z,2.63
2024-05-09T05:50:32.473Z,2.53
2024-05-09T05:55:30.765Z,2.60
2024-05-09T06:00:29.203Z,2.70
2024-05-09T06:05:26.057Z,2.23
2024-05-09T06:10:17.640Z,3.20
2024-05-09T06:15:19.640Z,2.60
2024-05-09T06:20:09.108Z,2.40
2024-05-09T06:25:07.475Z,2.40
2024-05-09T06:29:55.337Z,2.37
2024-05-09T06:34:47.132Z,2.37
2024-05-09T06:39:33.204Z,2.53
2024-05-09T06:44:24.601Z,2.60
2024-05-09T06:49:23.306Z,2.90
2024-05-09T06:54:30.234Z,2.60
2024-05-09T06:59:15.887Z,3.00
2024-05-09T07:04:05.210Z,3.17
2024-05-09T07:08:52.454Z,3.13
2024-05-09T07:13:41.029Z,2.70
2024-05-09T07:18:31.600Z,2.90
2024-05-09T07:23:17.784Z,4.00
2024-05-09T07:33:40.602Z,3.20
2024-05-09T07:38:29.389Z,3.03
2024-05-09T07:43:15.899Z,2.50
2024-05-09T07:53:37.823Z,2.70
2024-05-09T07:58:30.792Z,2.40
2024-05-09T08:03:16.430Z,3.80
2024-05-09T08:08:04.937Z,2.40
2024-05-09T08:12:54.072Z,2.07
2024-05-09T08:17:43.090Z,2.30
2024-05-09T08:22:32.062Z,2.00
2024-05-09T08:27:30.916Z,2.20
2024-05-09T08:32:19.430Z,2.00
2024-05-09T08:37:13.211Z,1.90
2024-05-09T08:42:11.366Z,1.65
2024-05-09T08:47:18.585Z,1.77
2024-05-09T08:52:04.157Z,2.05
2024-05-09T08:56:51.566Z,1.70
2024-05-09T09:01:41.313Z,1.60
2024-05-09T09:06:29.713Z,1.95
2024-05-09T09:11:16.129Z,1.90
2024-05-09T09:16:09.707Z,2.60
2024-05-09T09:20:55.429Z,1.95
2024-05-09T09:25:49.715Z,1.75
2024-05-09T09:30:38.307Z,1.70
2024-05-09T09:35:27.471Z,2.20
2024-05-09T09:40:22.134Z,2.13
2024-05-09T09:45:11.381Z,2.35
2024-05-09T09:49:58.872Z,2.42
2024-05-09T09:54:46.973Z,2.03
2024-05-09T09:59:32.751Z,1.98
2024-05-09T10:04:21.604Z,1.98
2024-05-09T10:09:07.186Z,1.90
2024-05-09T10:13:56.690Z,1.88
2024-05-09T10:18:45.379Z,2.22
2024-05-09T10:23:36.351Z,2.20
2024-05-09T10:28:37.224Z,3.72
2024-05-09T10:33:20.732Z,1.77
2024-05-09T10:38:16.076Z,2.30
2024-05-09T10:43:12.116Z,2.25
2024-05-09T10:48:06.790Z,2.00
2024-05-09T10:52:55.787Z,2.47
2024-05-09T10:57:43.289Z,2.25
2024-05-09T11:02:40.399Z,1.88
2024-05-09T11:07:43.933Z,1.80
2024-05-09T11:12:39.204Z,2.38
2024-05-09T11:17:24.691Z,1.90
2024-05-09T11:22:13.329Z,1.95
2024-05-09T11:27:00.113Z,2.65
2024-05-09T11:31:49.368Z,2.15
2024-05-09T11:36:34.900Z,1.65
2024-05-09T11:41:23.048Z,1.65
2024-05-09T11:46:11.648Z,1.80
2024-05-09T11:51:00.232Z,2.17
2024-05-09T11:55:47.683Z,1.98
2024-05-09T12:00:48.489Z,2.10
2024-05-09T12:05:43.564Z,1.80
2024-05-09T12:10:33.705Z,1.80
2024-05-09T12:15:29.556Z,1.60
2024-05-09T12:20:28.530Z,1.70
2024-05-09T12:25:23.450Z,2.03
2024-05-09T12:30:14.199Z,2.07
2024-05-09T12:35:02.635Z,1.90
2024-05-09T12:39:51.639Z,1.90
2024-05-09T12:44:37.128Z,1.80
2024-05-09T12:49:24.414Z,2.00
2024-05-09T12:54:18.037Z,1.70
2024-05-09T12:59:11.555Z,1.80
2024-05-09T13:03:58.470Z,2.10
2024-05-09T13:08:45.892Z,1.70
2024-05-09T13:13:39.747Z,1.77
2024-05-09T13:18:43.798Z,1.77
2024-05-09T13:23:31.143Z,1.77
2024-05-09T13:28:19.467Z,1.90
2024-05-09T13:33:09.674Z,1.67
2024-05-09T13:37:58.839Z,1.95
2024-05-09T13:42:45.678Z,2.00
2024-05-09T13:47:40.633Z,1.87
2024-05-09T13:52:29.220Z,1.75
2024-05-09T13:57:18.217Z,1.90
2024-05-09T14:02:03.823Z,1.70
2024-05-09T14:06:51.549Z,1.70
2024-05-09T14:11:37.418Z,1.80
2024-05-09T14:16:28.109Z,1.70
2024-05-09T14:21:21.582Z,1.60
2024-05-09T14:26:15.755Z,2.10
2024-05-09T14:31:08.093Z,1.70
2024-05-09T14:35:56.717Z,1.80
2024-05-09T14:40:44.450Z,4.50
2024-05-09T14:45:35.099Z,1.70
2024-05-09T14:50:32.171Z,1.53
2024-05-09T14:55:26.779Z,1.50
2024-05-09T15:04:48.618Z,1.97
2024-05-09T15:09:44.231Z,1.63
2024-05-09T15:31:54.728Z,1.63
2024-05-09T15:42:16.525Z,1.73
2024-05-09T15:47:04.997Z,2.00
2024-05-09T15:51:53.458Z,2.00
2024-05-09T15:56:40.988Z,1.90
2024-05-09T16:01:28.819Z,1.83
2024-05-09T16:06:30.730Z,2.00
2024-05-09T16:11:20.977Z,1.90
2024-05-09T16:16:08.832Z,1.90
2024-05-09T16:21:00.322Z,1.60
2024-05-09T16:25:48.884Z,2.20
2024-05-09T16:30:44.490Z,2.27
2024-05-09T16:35:39.498Z,2.20
2024-05-09T16:40:34.507Z,3.67
2024-05-09T16:45:44.249Z,2.10
2024-05-09T16:50:33.286Z,1.80
2024-05-09T16:55:21.276Z,1.60
2024-05-09T17:00:18.110Z,1.90
2024-05-09T17:05:16.943Z,3.83
2024-05-09T17:10:22.208Z,2.20
2024-05-09T17:15:17.861Z,2.30
2024-05-09T17:20:18.882Z,2.40
2024-05-09T17:25:14.577Z,2.50
2024-05-09T17:29:59.902Z,1.93
2024-05-09T17:34:47.047Z,1.77
2024-05-09T17:39:38.550Z,1.70
2024-05-09T17:44:27.074Z,1.70
2024-05-09T17:49:12.613Z,1.83
2024-05-09T17:53:59.869Z,2.00
2024-05-09T17:58:48.949Z,2.00
2024-05-09T18:03:37.365Z,2.30
2024-05-09T18:08:23.655Z,2.20
2024-05-09T18:13:11.967Z,2.30
2024-05-09T18:18:01.093Z,2.10
2024-05-09T18:22:50.266Z,13.93
2024-05-09T18:27:36.719Z,2.40
2024-05-09T18:32:24.980Z,2.30
2024-05-09T18:37:13.700Z,3.13
2024-05-09T18:42:02.520Z,6.47
2024-05-09T18:46:48.160Z,3.80
2024-05-09T18:51:35.853Z,2.80
2024-05-09T18:56:24.228Z,2.70
2024-05-09T19:01:28.745Z,3.37
2024-05-09T19:06:14.747Z,11.33
2024-05-09T19:11:03.944Z,33.07
2024-05-09T19:15:52.553Z,25.50
2024-05-09T19:20:40.945Z,7.70
2024-05-09T19:25:29.413Z,3.63
2024-05-09T19:30:28.996Z,4.23
2024-05-09T19:35:21.811Z,3.90
2024-05-09T19:40:18.248Z,3.70
2024-05-09T19:45:15.915Z,5.40
2024-05-09T19:50:01.614Z,5.50
2024-05-09T19:54:50.118Z,6.37
2024-05-09T19:59:38.556Z,6.50
2024-05-09T20:04:24.292Z,6.70
2024-05-09T20:09:12.850Z,7.13
2024-05-09T20:14:01.164Z,9.27
2024-05-09T20:19:02.989Z,6.70
2024-05-09T20:23:56.699Z,5.80
2024-05-09T20:28:53.749Z,6.17
2024-05-09T20:33:39.405Z,5.30
2024-05-09T20:38:27.699Z,7.90
2024-05-09T20:43:15.145Z,5.63
2024-05-09T20:48:06.466Z,4.87
2024-05-09T20:52:55.198Z,5.10
2024-05-09T20:57:43.416Z,4.43
2024-05-09T21:02:38.183Z,7.13
2024-05-09T21:07:38.421Z,6.70
2024-05-09T21:12:23.680Z,6.37
2024-05-09T21:17:11.847Z,5.37
2024-05-09T21:22:00.212Z,5.50
2024-05-09T21:26:47.661Z,4.67
2024-05-09T21:31:39.164Z,6.77
2024-05-09T21:36:27.768Z,4.87
2024-05-09T21:41:13.381Z,4.60
2024-05-09T21:46:00.734Z,4.13
2024-05-09T21:50:48.149Z,4.10
2024-05-09T21:55:36.310Z,3.63
2024-05-09T22:00:32.299Z,3.87
2024-05-09T22:05:28.416Z,4.00
2024-05-09T22:10:22.674Z,4.03
2024-05-09T22:15:30.008Z,4.10
2024-05-09T22:20:33.074Z,3.67
2024-05-09T22:25:24.222Z,4.03
2024-05-09T22:30:21.123Z,3.80
2024-05-09T22:35:14.070Z,4.13
2024-05-09T22:40:06.844Z,3.90
2024-05-09T22:44:58.670Z,7.40
2024-05-09T22:49:54.665Z,4.80
2024-05-09T22:54:59.007Z,3.77
2024-05-09T22:59:52.994Z,3.53
2024-05-09T23:04:38.899Z,4.10
2024-05-09T23:09:27.826Z,3.73
2024-05-09T23:14:26.138Z,3.67
2024-05-09T23:19:22.158Z,3.57
2024-05-09T23:24:08.250Z,3.97
2024-05-09T23:29:06.046Z,3.03
2024-05-09T23:34:00.117Z,3.33
2024-05-09T23:38:46.211Z,4.07
2024-05-09T23:43:36.449Z,3.73
2024-05-09T23:48:22.172Z,3.97
2024-05-09T23:53:14.438Z,3.80
2024-05-09T23:58:00.526Z,4.30
